sensor_id;sensor_type;location;lat;lon;timestamp;temperature;humidity
12164;DHT22;6145;50.192;10.064;2022-09-09T00:02:19;17.50;59.50
12164;DHT22;6145;50.192;10.064;2022-09-09T00:04:52;17.50;59.50
12164;DHT22;6145;50.192;10.064;2022-09-09T00:07:35;17.40;59.50
12164;DHT22;6145;50.192;10.064;2022-09-09T00:10:16;17.40;59.40
12164;DHT22;6145;50.192;10.064;2022-09-09T00:12:50;17.30;59.40
12164;DHT22;6145;50.192;10.064;2022-09-09T00:15:22;17.40;59.50
12164;DHT22;6145;50.192;10.064;2022-09-09T00:17:53;17.30;59.50
12164;DHT22;6145;50.192;10.064;2022-09-09T00:20:29;17.20;59.50
12164;DHT22;6145;50.192;10.064;2022-09-09T00:23:03;17.20;59.60
12164;DHT22;6145;50.192;10.064;2022-09-09T00:25:39;17.20;59.80
12164;DHT22;6145;50.192;10.064;2022-09-09T00:28:14;17.20;59.80
12164;DHT22;6145;50.192;10.064;2022-09-09T00:30:43;17.20;59.90
12164;DHT22;6145;50.192;10.064;2022-09-09T00:33:11;17.10;59.80
12164;DHT22;6145;50.192;10.064;2022-09-09T00:35:44;17.10;59.80
12164;DHT22;6145;50.192;10.064;2022-09-09T00:38:14;17.10;59.90
12164;DHT22;6145;50.192;10.064;2022-09-09T00:40:49;17.00;59.70
12164;DHT22;6145;50.192;10.064;2022-09-09T00:43:25;17.00;59.90
12164;DHT22;6145;50.192;10.064;2022-09-09T00:46:01;17.00;59.90
12164;DHT22;6145;50.192;10.064;2022-09-09T00:48:37;17.00;59.90
12164;DHT22;6145;50.192;10.064;2022-09-09T00:51:11;17.00;60.00
12164;DHT22;6145;50.192;10.064;2022-09-09T00:53:59;16.90;59.90
12164;DHT22;6145;50.192;10.064;2022-09-09T00:56:36;16.90;59.90
12164;DHT22;6145;50.192;10.064;2022-09-09T00:59:16;16.80;60.00
12164;DHT22;6145;50.192;10.064;2022-09-09T01:01:50;16.80;60.00
12164;DHT22;6145;50.192;10.064;2022-09-09T01:04:22;16.80;60.10
12164;DHT22;6145;50.192;10.064;2022-09-09T01:06:55;16.80;60.20
12164;DHT22;6145;50.192;10.064;2022-09-09T01:09:29;16.70;60.10
12164;DHT22;6145;50.192;10.064;2022-09-09T01:12:06;16.70;60.20
12164;DHT22;6145;50.192;10.064;2022-09-09T01:14:40;16.70;60.30
12164;DHT22;6145;50.192;10.064;2022-09-09T01:17:14;16.80;60.50
12164;DHT22;6145;50.192;10.064;2022-09-09T01:19:51;16.60;60.40
12164;DHT22;6145;50.192;10.064;2022-09-09T01:22:29;16.60;60.40
12164;DHT22;6145;50.192;10.064;2022-09-09T01:28:22;16.60;60.70
12164;DHT22;6145;50.192;10.064;2022-09-09T01:30:51;16.50;60.70
12164;DHT22;6145;50.192;10.064;2022-09-09T01:33:18;16.50;60.70
12164;DHT22;6145;50.192;10.064;2022-09-09T01:35:48;16.50;60.80
12164;DHT22;6145;50.192;10.064;2022-09-09T01:38:17;16.50;60.80
12164;DHT22;6145;50.192;10.064;2022-09-09T01:40:44;16.50;60.90
12164;DHT22;6145;50.192;10.064;2022-09-09T01:43:11;16.40;60.80
12164;DHT22;6145;50.192;10.064;2022-09-09T01:45:41;16.40;60.90
12164;DHT22;6145;50.192;10.064;2022-09-09T01:48:09;16.50;61.00
12164;DHT22;6145;50.192;10.064;2022-09-09T01:50:35;16.40;61.00
12164;DHT22;6145;50.192;10.064;2022-09-09T01:53:02;16.40;61.20
12164;DHT22;6145;50.192;10.064;2022-09-09T01:55:32;16.40;61.20
12164;DHT22;6145;50.192;10.064;2022-09-09T01:58:11;16.30;61.30
12164;DHT22;6145;50.192;10.064;2022-09-09T02:00:53;16.30;61.50
12164;DHT22;6145;50.192;10.064;2022-09-09T02:03:24;16.30;61.50
12164;DHT22;6145;50.192;10.064;2022-09-09T02:06:00;16.30;61.70
12164;DHT22;6145;50.192;10.064;2022-09-09T02:08:34;16.30;61.70
12164;DHT22;6145;50.192;10.064;2022-09-09T02:11:06;16.20;61.70
12164;DHT22;6145;50.192;10.064;2022-09-09T02:13:37;16.20;61.80
12164;DHT22;6145;50.192;10.064;2022-09-09T02:16:08;16.20;61.90
12164;DHT22;6145;50.192;10.064;2022-09-09T02:18:41;16.30;61.90
12164;DHT22;6145;50.192;10.064;2022-09-09T02:21:10;16.20;62.00
12164;DHT22;6145;50.192;10.064;2022-09-09T02:23:40;16.20;62.00
12164;DHT22;6145;50.192;10.064;2022-09-09T02:26:09;16.20;62.10
12164;DHT22;6145;50.192;10.064;2022-09-09T02:28:38;16.20;62.10
12164;DHT22;6145;50.192;10.064;2022-09-09T02:31:07;16.20;62.20
12164;DHT22;6145;50.192;10.064;2022-09-09T02:33:38;16.10;62.20
12164;DHT22;6145;50.192;10.064;2022-09-09T02:36:08;16.20;62.40
12164;DHT22;6145;50.192;10.064;2022-09-09T02:38:40;16.10;62.50
12164;DHT22;6145;50.192;10.064;2022-09-09T02:41:09;16.10;62.60
12164;DHT22;6145;50.192;10.064;2022-09-09T02:43:36;16.10;62.70
12164;DHT22;6145;50.192;10.064;2022-09-09T02:46:12;16.10;62.80
12164;DHT22;6145;50.192;10.064;2022-09-09T02:48:50;16.10;63.10
12164;DHT22;6145;50.192;10.064;2022-09-09T02:51:24;16.10;63.40
12164;DHT22;6145;50.192;10.064;2022-09-09T02:54:04;16.10;63.40
12164;DHT22;6145;50.192;10.064;2022-09-09T02:56:33;16.10;63.60
12164;DHT22;6145;50.192;10.064;2022-09-09T02:59:05;16.00;63.60
12164;DHT22;6145;50.192;10.064;2022-09-09T03:01:33;16.10;63.80
12164;DHT22;6145;50.192;10.064;2022-09-09T03:04:01;16.10;63.90
12164;DHT22;6145;50.192;10.064;2022-09-09T03:06:28;16.10;64.00
12164;DHT22;6145;50.192;10.064;2022-09-09T03:08:55;16.20;64.10
12164;DHT22;6145;50.192;10.064;2022-09-09T03:11:26;16.10;64.00
12164;DHT22;6145;50.192;10.064;2022-09-09T03:13:53;16.10;64.30
12164;DHT22;6145;50.192;10.064;2022-09-09T03:16:21;16.10;64.30
12164;DHT22;6145;50.192;10.064;2022-09-09T03:18:49;16.10;64.40
12164;DHT22;6145;50.192;10.064;2022-09-09T03:21:16;16.10;64.50
12164;DHT22;6145;50.192;10.064;2022-09-09T03:23:43;16.10;64.60
12164;DHT22;6145;50.192;10.064;2022-09-09T03:26:10;16.10;64.60
12164;DHT22;6145;50.192;10.064;2022-09-09T03:28:37;16.00;64.50
12164;DHT22;6145;50.192;10.064;2022-09-09T03:31:05;16.10;64.60
12164;DHT22;6145;50.192;10.064;2022-09-09T03:33:36;16.10;64.80
12164;DHT22;6145;50.192;10.064;2022-09-09T03:36:05;16.10;65.00
12164;DHT22;6145;50.192;10.064;2022-09-09T03:38:32;16.10;65.20
12164;DHT22;6145;50.192;10.064;2022-09-09T03:41:00;16.00;65.40
12164;DHT22;6145;50.192;10.064;2022-09-09T03:43:27;16.20;65.80
12164;DHT22;6145;50.192;10.064;2022-09-09T03:45:54;16.00;66.80
12164;DHT22;6145;50.192;10.064;2022-09-09T03:48:22;16.10;66.20
12164;DHT22;6145;50.192;10.064;2022-09-09T03:50:50;16.00;66.00
12164;DHT22;6145;50.192;10.064;2022-09-09T03:53:20;15.90;65.80
12164;DHT22;6145;50.192;10.064;2022-09-09T03:55:49;16.00;65.80
12164;DHT22;6145;50.192;10.064;2022-09-09T03:58:20;16.00;65.70
12164;DHT22;6145;50.192;10.064;2022-09-09T04:00:54;16.00;65.70
12164;DHT22;6145;50.192;10.064;2022-09-09T04:03:21;16.00;65.70
12164;DHT22;6145;50.192;10.064;2022-09-09T04:05:50;16.00;65.70
12164;DHT22;6145;50.192;10.064;2022-09-09T04:08:16;16.00;65.60
12164;DHT22;6145;50.192;10.064;2022-09-09T04:10:46;16.00;65.70
12164;DHT22;6145;50.192;10.064;2022-09-09T04:13:13;15.90;66.00
12164;DHT22;6145;50.192;10.064;2022-09-09T04:15:40;16.00;66.10
12164;DHT22;6145;50.192;10.064;2022-09-09T04:18:07;15.90;66.00
12164;DHT22;6145;50.192;10.064;2022-09-09T04:20:34;16.00;66.10
12164;DHT22;6145;50.192;10.064;2022-09-09T04:23:01;15.90;66.00
12164;DHT22;6145;50.192;10.064;2022-09-09T04:25:28;15.90;65.90
12164;DHT22;6145;50.192;10.064;2022-09-09T04:27:57;15.90;66.00
12164;DHT22;6145;50.192;10.064;2022-09-09T04:30:24;15.90;66.00
12164;DHT22;6145;50.192;10.064;2022-09-09T04:32:52;15.90;66.00
12164;DHT22;6145;50.192;10.064;2022-09-09T04:35:19;15.90;66.00
12164;DHT22;6145;50.192;10.064;2022-09-09T04:37:46;15.90;66.10
12164;DHT22;6145;50.192;10.064;2022-09-09T04:40:13;15.90;66.10
12164;DHT22;6145;50.192;10.064;2022-09-09T04:42:40;15.90;66.20
12164;DHT22;6145;50.192;10.064;2022-09-09T04:45:10;15.90;66.40
12164;DHT22;6145;50.192;10.064;2022-09-09T04:47:39;15.90;66.50
12164;DHT22;6145;50.192;10.064;2022-09-09T04:50:07;15.90;66.50
12164;DHT22;6145;50.192;10.064;2022-09-09T04:52:34;15.90;66.60
12164;DHT22;6145;50.192;10.064;2022-09-09T04:55:01;15.90;66.60
12164;DHT22;6145;50.192;10.064;2022-09-09T04:57:28;16.00;66.70
12164;DHT22;6145;50.192;10.064;2022-09-09T04:59:57;15.90;66.60
12164;DHT22;6145;50.192;10.064;2022-09-09T05:02:25;15.90;66.60
12164;DHT22;6145;50.192;10.064;2022-09-09T05:04:52;15.90;66.50
12164;DHT22;6145;50.192;10.064;2022-09-09T05:07:19;15.80;66.40
12164;DHT22;6145;50.192;10.064;2022-09-09T05:09:46;15.90;66.50
12164;DHT22;6145;50.192;10.064;2022-09-09T05:12:14;15.90;66.70
12164;DHT22;6145;50.192;10.064;2022-09-09T05:14:42;15.80;66.60
12164;DHT22;6145;50.192;10.064;2022-09-09T05:17:09;15.80;66.60
12164;DHT22;6145;50.192;10.064;2022-09-09T05:19:37;15.90;66.80
12164;DHT22;6145;50.192;10.064;2022-09-09T05:22:04;15.90;66.70
12164;DHT22;6145;50.192;10.064;2022-09-09T05:24:31;15.90;66.70
12164;DHT22;6145;50.192;10.064;2022-09-09T05:26:58;15.90;66.80
12164;DHT22;6145;50.192;10.064;2022-09-09T05:29:27;15.90;66.70
12164;DHT22;6145;50.192;10.064;2022-09-09T05:31:54;15.90;66.80
12164;DHT22;6145;50.192;10.064;2022-09-09T05:34:21;15.80;66.60
12164;DHT22;6145;50.192;10.064;2022-09-09T05:36:49;15.90;66.80
12164;DHT22;6145;50.192;10.064;2022-09-09T05:39:16;15.90;66.70
12164;DHT22;6145;50.192;10.064;2022-09-09T05:41:43;15.90;66.70
12164;DHT22;6145;50.192;10.064;2022-09-09T05:44:10;15.90;66.80
12164;DHT22;6145;50.192;10.064;2022-09-09T05:46:36;15.80;66.80
12164;DHT22;6145;50.192;10.064;2022-09-09T05:49:04;15.90;67.10
12164;DHT22;6145;50.192;10.064;2022-09-09T05:51:31;15.80;67.30
12164;DHT22;6145;50.192;10.064;2022-09-09T05:53:59;15.80;67.70
12164;DHT22;6145;50.192;10.064;2022-09-09T05:56:27;15.80;67.70
12164;DHT22;6145;50.192;10.064;2022-09-09T05:58:55;15.80;67.60
12164;DHT22;6145;50.192;10.064;2022-09-09T06:01:24;15.70;67.60
12164;DHT22;6145;50.192;10.064;2022-09-09T06:03:52;15.80;67.70
12164;DHT22;6145;50.192;10.064;2022-09-09T06:06:20;15.80;67.70
12164;DHT22;6145;50.192;10.064;2022-09-09T06:08:48;15.80;67.70
12164;DHT22;6145;50.192;10.064;2022-09-09T06:11:19;15.70;67.80
12164;DHT22;6145;50.192;10.064;2022-09-09T06:17:08;15.90;68.20
12164;DHT22;6145;50.192;10.064;2022-09-09T06:19:35;15.90;68.80
12164;DHT22;6145;50.192;10.064;2022-09-09T06:22:02;15.90;68.90
12164;DHT22;6145;50.192;10.064;2022-09-09T06:24:30;16.00;68.90
12164;DHT22;6145;50.192;10.064;2022-09-09T06:26:59;16.00;68.90
12164;DHT22;6145;50.192;10.064;2022-09-09T06:29:26;16.10;69.00
12164;DHT22;6145;50.192;10.064;2022-09-09T06:31:53;16.10;69.00
12164;DHT22;6145;50.192;10.064;2022-09-09T06:34:19;16.20;69.00
12164;DHT22;6145;50.192;10.064;2022-09-09T06:36:47;16.20;69.00
12164;DHT22;6145;50.192;10.064;2022-09-09T06:39:13;16.30;69.10
12164;DHT22;6145;50.192;10.064;2022-09-09T06:41:41;16.30;69.10
12164;DHT22;6145;50.192;10.064;2022-09-09T06:44:10;16.40;69.20
12164;DHT22;6145;50.192;10.064;2022-09-09T06:46:38;16.40;69.20
12164;DHT22;6145;50.192;10.064;2022-09-09T06:49:05;16.50;69.10
12164;DHT22;6145;50.192;10.064;2022-09-09T06:51:34;16.60;69.20
12164;DHT22;6145;50.192;10.064;2022-09-09T06:54:02;16.60;69.10
12164;DHT22;6145;50.192;10.064;2022-09-09T06:56:30;16.70;69.10
12164;DHT22;6145;50.192;10.064;2022-09-09T06:58:59;16.80;69.10
12164;DHT22;6145;50.192;10.064;2022-09-09T07:01:29;16.90;69.20
12164;DHT22;6145;50.192;10.064;2022-09-09T07:03:58;16.90;69.20
12164;DHT22;6145;50.192;10.064;2022-09-09T07:06:26;17.00;69.20
12164;DHT22;6145;50.192;10.064;2022-09-09T07:08:54;17.10;69.70
12164;DHT22;6145;50.192;10.064;2022-09-09T07:11:25;17.10;69.60
12164;DHT22;6145;50.192;10.064;2022-09-09T07:13:52;17.20;69.50
12164;DHT22;6145;50.192;10.064;2022-09-09T07:16:22;17.30;69.30
12164;DHT22;6145;50.192;10.064;2022-09-09T07:18:51;17.40;69.50
12164;DHT22;6145;50.192;10.064;2022-09-09T07:21:18;17.40;69.30
12164;DHT22;6145;50.192;10.064;2022-09-09T07:23:46;17.50;69.10
12164;DHT22;6145;50.192;10.064;2022-09-09T07:26:14;17.60;69.60
12164;DHT22;6145;50.192;10.064;2022-09-09T07:28:42;17.70;69.50
12164;DHT22;6145;50.192;10.064;2022-09-09T07:31:14;17.80;69.60
12164;DHT22;6145;50.192;10.064;2022-09-09T07:33:42;17.90;69.60
12164;DHT22;6145;50.192;10.064;2022-09-09T07:36:14;18.00;69.40
12164;DHT22;6145;50.192;10.064;2022-09-09T07:38:42;18.10;69.10
12164;DHT22;6145;50.192;10.064;2022-09-09T07:41:12;18.10;68.80
12164;DHT22;6145;50.192;10.064;2022-09-09T07:43:40;18.20;68.60
12164;DHT22;6145;50.192;10.064;2022-09-09T07:46:08;18.20;68.40
12164;DHT22;6145;50.192;10.064;2022-09-09T07:48:36;18.30;68.30
12164;DHT22;6145;50.192;10.064;2022-09-09T07:51:04;18.40;68.20
12164;DHT22;6145;50.192;10.064;2022-09-09T07:53:34;18.40;68.10
12164;DHT22;6145;50.192;10.064;2022-09-09T07:56:05;18.50;67.90
12164;DHT22;6145;50.192;10.064;2022-09-09T07:58:33;18.60;67.90
12164;DHT22;6145;50.192;10.064;2022-09-09T08:00:59;18.60;67.80
12164;DHT22;6145;50.192;10.064;2022-09-09T08:03:26;18.70;67.70
12164;DHT22;6145;50.192;10.064;2022-09-09T08:05:53;18.80;68.40
12164;DHT22;6145;50.192;10.064;2022-09-09T08:08:26;18.80;67.60
12164;DHT22;6145;50.192;10.064;2022-09-09T08:11:02;18.90;67.40
12164;DHT22;6145;50.192;10.064;2022-09-09T08:13:29;19.00;67.20
12164;DHT22;6145;50.192;10.064;2022-09-09T08:16:04;19.00;67.00
12164;DHT22;6145;50.192;10.064;2022-09-09T08:18:31;19.10;66.70
12164;DHT22;6145;50.192;10.064;2022-09-09T08:20:57;19.10;66.50
12164;DHT22;6145;50.192;10.064;2022-09-09T08:23:26;19.20;66.40
12164;DHT22;6145;50.192;10.064;2022-09-09T08:25:54;19.20;66.20
12164;DHT22;6145;50.192;10.064;2022-09-09T08:28:22;19.30;66.20
12164;DHT22;6145;50.192;10.064;2022-09-09T08:30:49;19.30;66.00
12164;DHT22;6145;50.192;10.064;2022-09-09T08:33:16;19.30;65.90
12164;DHT22;6145;50.192;10.064;2022-09-09T08:35:50;19.40;65.80
12164;DHT22;6145;50.192;10.064;2022-09-09T08:38:17;19.50;65.70
12164;DHT22;6145;50.192;10.064;2022-09-09T08:40:46;19.50;65.70
12164;DHT22;6145;50.192;10.064;2022-09-09T08:43:16;19.60;65.80
12164;DHT22;6145;50.192;10.064;2022-09-09T08:45:52;19.60;65.60
12164;DHT22;6145;50.192;10.064;2022-09-09T08:48:39;19.70;65.40
12164;DHT22;6145;50.192;10.064;2022-09-09T08:51:07;19.80;65.40
12164;DHT22;6145;50.192;10.064;2022-09-09T08:53:38;19.80;65.10
12164;DHT22;6145;50.192;10.064;2022-09-09T08:56:11;19.90;65.00
12164;DHT22;6145;50.192;10.064;2022-09-09T08:58:45;19.90;64.80
12164;DHT22;6145;50.192;10.064;2022-09-09T09:01:28;19.90;64.60
12164;DHT22;6145;50.192;10.064;2022-09-09T09:04:02;20.00;64.70
12164;DHT22;6145;50.192;10.064;2022-09-09T09:06:43;20.00;64.60
12164;DHT22;6145;50.192;10.064;2022-09-09T09:09:18;20.10;64.80
12164;DHT22;6145;50.192;10.064;2022-09-09T09:11:49;20.20;65.10
12164;DHT22;6145;50.192;10.064;2022-09-09T09:14:21;20.20;65.00
12164;DHT22;6145;50.192;10.064;2022-09-09T09:16:52;20.30;65.20
12164;DHT22;6145;50.192;10.064;2022-09-09T09:19:19;20.40;65.00
12164;DHT22;6145;50.192;10.064;2022-09-09T09:21:51;20.50;64.80
12164;DHT22;6145;50.192;10.064;2022-09-09T09:24:25;20.60;64.60
12164;DHT22;6145;50.192;10.064;2022-09-09T09:26:54;20.70;64.20
12164;DHT22;6145;50.192;10.064;2022-09-09T09:29:25;20.80;64.00
12164;DHT22;6145;50.192;10.064;2022-09-09T09:31:53;20.90;63.70
12164;DHT22;6145;50.192;10.064;2022-09-09T09:34:21;21.00;63.30
12164;DHT22;6145;50.192;10.064;2022-09-09T09:36:53;21.10;63.10
12164;DHT22;6145;50.192;10.064;2022-09-09T09:39:25;21.10;62.70
12164;DHT22;6145;50.192;10.064;2022-09-09T09:41:52;21.20;62.60
12164;DHT22;6145;50.192;10.064;2022-09-09T09:44:25;21.30;62.50
12164;DHT22;6145;50.192;10.064;2022-09-09T09:47:04;21.40;62.30
12164;DHT22;6145;50.192;10.064;2022-09-09T09:49:31;21.50;62.20
12164;DHT22;6145;50.192;10.064;2022-09-09T09:52:00;21.50;61.80
12164;DHT22;6145;50.192;10.064;2022-09-09T09:54:28;21.60;61.40
12164;DHT22;6145;50.192;10.064;2022-09-09T09:56:56;21.60;60.90
12164;DHT22;6145;50.192;10.064;2022-09-09T09:59:36;21.70;60.70
12164;DHT22;6145;50.192;10.064;2022-09-09T10:02:23;21.80;60.50
12164;DHT22;6145;50.192;10.064;2022-09-09T10:05:01;21.80;59.90
12164;DHT22;6145;50.192;10.064;2022-09-09T10:07:28;21.80;59.80
12164;DHT22;6145;50.192;10.064;2022-09-09T10:09:56;21.90;59.70
12164;DHT22;6145;50.192;10.064;2022-09-09T10:12:34;21.80;59.50
12164;DHT22;6145;50.192;10.064;2022-09-09T10:15:10;22.00;59.30
12164;DHT22;6145;50.192;10.064;2022-09-09T10:17:47;22.00;59.20
12164;DHT22;6145;50.192;10.064;2022-09-09T10:20:29;22.00;59.10
12164;DHT22;6145;50.192;10.064;2022-09-09T10:23:11;22.00;59.00
12164;DHT22;6145;50.192;10.064;2022-09-09T10:26:10;22.00;58.90
12164;DHT22;6145;50.192;10.064;2022-09-09T10:28:57;22.10;58.90
12164;DHT22;6145;50.192;10.064;2022-09-09T10:31:32;22.10;58.90
12164;DHT22;6145;50.192;10.064;2022-09-09T10:34:14;22.10;59.00
12164;DHT22;6145;50.192;10.064;2022-09-09T10:36:47;22.10;59.10
12164;DHT22;6145;50.192;10.064;2022-09-09T10:39:25;22.10;59.10
12164;DHT22;6145;50.192;10.064;2022-09-09T10:41:59;22.10;58.90
12164;DHT22;6145;50.192;10.064;2022-09-09T10:44:39;22.20;59.00
12164;DHT22;6145;50.192;10.064;2022-09-09T10:47:28;22.20;58.80
12164;DHT22;6145;50.192;10.064;2022-09-09T10:50:12;22.30;58.60
12164;DHT22;6145;50.192;10.064;2022-09-09T10:52:47;22.30;58.30
12164;DHT22;6145;50.192;10.064;2022-09-09T10:55:20;22.30;58.10
12164;DHT22;6145;50.192;10.064;2022-09-09T10:57:53;22.30;57.80
12164;DHT22;6145;50.192;10.064;2022-09-09T11:00:21;22.30;57.50
12164;DHT22;6145;50.192;10.064;2022-09-09T11:02:52;22.30;57.60
12164;DHT22;6145;50.192;10.064;2022-09-09T11:05:26;22.40;57.90
12164;DHT22;6145;50.192;10.064;2022-09-09T11:07:57;22.30;58.10
12164;DHT22;6145;50.192;10.064;2022-09-09T11:10:34;22.30;58.50
12164;DHT22;6145;50.192;10.064;2022-09-09T11:13:10;22.20;58.90
12164;DHT22;6145;50.192;10.064;2022-09-09T11:15:43;22.20;59.20
12164;DHT22;6145;50.192;10.064;2022-09-09T11:18:15;22.10;59.50
12164;DHT22;6145;50.192;10.064;2022-09-09T11:20:45;22.10;59.70
12164;DHT22;6145;50.192;10.064;2022-09-09T11:23:15;22.10;59.90
12164;DHT22;6145;50.192;10.064;2022-09-09T11:25:47;22.10;60.10
12164;DHT22;6145;50.192;10.064;2022-09-09T11:28:32;22.10;60.40
12164;DHT22;6145;50.192;10.064;2022-09-09T11:31:21;22.00;60.50
12164;DHT22;6145;50.192;10.064;2022-09-09T11:40:09;22.10;61.20
12164;DHT22;6145;50.192;10.064;2022-09-09T11:42:40;22.00;60.90
12164;DHT22;6145;50.192;10.064;2022-09-09T11:45:19;22.00;61.00
12164;DHT22;6145;50.192;10.064;2022-09-09T11:47:52;22.10;60.90
12164;DHT22;6145;50.192;10.064;2022-09-09T11:50:29;22.00;60.70
12164;DHT22;6145;50.192;10.064;2022-09-09T11:53:16;22.10;60.70
12164;DHT22;6145;50.192;10.064;2022-09-09T11:55:46;22.10;60.90
12164;DHT22;6145;50.192;10.064;2022-09-09T11:58:17;22.10;61.10
12164;DHT22;6145;50.192;10.064;2022-09-09T12:00:47;22.10;61.10
12164;DHT22;6145;50.192;10.064;2022-09-09T12:03:33;22.20;61.30
12164;DHT22;6145;50.192;10.064;2022-09-09T12:06:10;22.20;61.60
12164;DHT22;6145;50.192;10.064;2022-09-09T12:08:41;22.30;61.20
12164;DHT22;6145;50.192;10.064;2022-09-09T12:11:10;22.30;60.70
12164;DHT22;6145;50.192;10.064;2022-09-09T12:13:37;22.40;60.20
12164;DHT22;6145;50.192;10.064;2022-09-09T12:16:04;22.40;59.40
12164;DHT22;6145;50.192;10.064;2022-09-09T12:18:33;22.40;58.60
12164;DHT22;6145;50.192;10.064;2022-09-09T12:21:07;22.50;58.20
12164;DHT22;6145;50.192;10.064;2022-09-09T12:23:44;22.50;57.70
12164;DHT22;6145;50.192;10.064;2022-09-09T12:26:28;22.50;57.40
12164;DHT22;6145;50.192;10.064;2022-09-09T12:29:04;22.50;57.00
12164;DHT22;6145;50.192;10.064;2022-09-09T12:31:35;22.50;56.70
12164;DHT22;6145;50.192;10.064;2022-09-09T12:34:10;22.40;56.70
12164;DHT22;6145;50.192;10.064;2022-09-09T12:36:39;22.40;56.40
12164;DHT22;6145;50.192;10.064;2022-09-09T12:39:18;22.40;56.50
12164;DHT22;6145;50.192;10.064;2022-09-09T12:41:51;22.40;56.40
12164;DHT22;6145;50.192;10.064;2022-09-09T12:44:23;22.30;56.50
12164;DHT22;6145;50.192;10.064;2022-09-09T12:46:51;22.30;56.80
12164;DHT22;6145;50.192;10.064;2022-09-09T12:49:29;22.30;56.90
12164;DHT22;6145;50.192;10.064;2022-09-09T12:52:01;22.20;57.10
12164;DHT22;6145;50.192;10.064;2022-09-09T12:54:33;22.20;57.50
12164;DHT22;6145;50.192;10.064;2022-09-09T12:57:01;22.10;57.50
12164;DHT22;6145;50.192;10.064;2022-09-09T12:59:36;22.10;57.50
12164;DHT22;6145;50.192;10.064;2022-09-09T13:02:10;22.10;57.80
12164;DHT22;6145;50.192;10.064;2022-09-09T13:04:38;22.10;58.30
12164;DHT22;6145;50.192;10.064;2022-09-09T13:07:08;22.10;58.40
12164;DHT22;6145;50.192;10.064;2022-09-09T13:09:38;22.20;58.20
12164;DHT22;6145;50.192;10.064;2022-09-09T13:12:06;22.20;57.70
12164;DHT22;6145;50.192;10.064;2022-09-09T13:14:36;22.20;57.50
12164;DHT22;6145;50.192;10.064;2022-09-09T13:17:05;22.30;56.80
12164;DHT22;6145;50.192;10.064;2022-09-09T13:19:36;22.30;56.60
12164;DHT22;6145;50.192;10.064;2022-09-09T13:22:12;22.30;56.20
12164;DHT22;6145;50.192;10.064;2022-09-09T13:24:40;22.30;55.70
12164;DHT22;6145;50.192;10.064;2022-09-09T13:27:24;22.40;55.80
12164;DHT22;6145;50.192;10.064;2022-09-09T13:29:54;22.40;56.50
12164;DHT22;6145;50.192;10.064;2022-09-09T13:32:23;22.40;55.90
12164;DHT22;6145;50.192;10.064;2022-09-09T13:34:51;22.50;56.00
12164;DHT22;6145;50.192;10.064;2022-09-09T13:37:23;22.50;56.00
12164;DHT22;6145;50.192;10.064;2022-09-09T13:39:53;22.60;55.90
12164;DHT22;6145;50.192;10.064;2022-09-09T13:42:25;22.60;55.40
12164;DHT22;6145;50.192;10.064;2022-09-09T13:44:52;22.70;55.50
12164;DHT22;6145;50.192;10.064;2022-09-09T13:47:21;22.80;55.00
12164;DHT22;6145;50.192;10.064;2022-09-09T13:49:50;22.80;54.20
12164;DHT22;6145;50.192;10.064;2022-09-09T13:52:18;22.80;53.70
12164;DHT22;6145;50.192;10.064;2022-09-09T13:54:47;22.90;53.40
12164;DHT22;6145;50.192;10.064;2022-09-09T13:57:18;22.90;52.80
12164;DHT22;6145;50.192;10.064;2022-09-09T13:59:45;22.90;52.10
12164;DHT22;6145;50.192;10.064;2022-09-09T14:02:13;23.00;52.20
12164;DHT22;6145;50.192;10.064;2022-09-09T14:04:40;23.00;51.90
12164;DHT22;6145;50.192;10.064;2022-09-09T14:07:10;23.00;51.70
12164;DHT22;6145;50.192;10.064;2022-09-09T14:09:37;23.00;51.40
12164;DHT22;6145;50.192;10.064;2022-09-09T14:12:04;23.00;51.00
12164;DHT22;6145;50.192;10.064;2022-09-09T14:14:32;23.00;51.00
12164;DHT22;6145;50.192;10.064;2022-09-09T14:16:59;23.00;50.90
12164;DHT22;6145;50.192;10.064;2022-09-09T14:19:26;23.00;51.00
12164;DHT22;6145;50.192;10.064;2022-09-09T14:21:52;23.00;50.90
12164;DHT22;6145;50.192;10.064;2022-09-09T14:24:19;23.00;50.80
12164;DHT22;6145;50.192;10.064;2022-09-09T14:26:46;22.90;50.60
12164;DHT22;6145;50.192;10.064;2022-09-09T14:29:13;23.00;50.70
12164;DHT22;6145;50.192;10.064;2022-09-09T14:31:41;23.00;50.80
12164;DHT22;6145;50.192;10.064;2022-09-09T14:34:08;23.00;50.90
12164;DHT22;6145;50.192;10.064;2022-09-09T14:36:36;23.00;51.00
12164;DHT22;6145;50.192;10.064;2022-09-09T14:39:03;23.00;51.10
12164;DHT22;6145;50.192;10.064;2022-09-09T14:41:30;23.00;51.10
12164;DHT22;6145;50.192;10.064;2022-09-09T14:43:57;23.10;51.20
12164;DHT22;6145;50.192;10.064;2022-09-09T14:46:25;23.00;51.10
12164;DHT22;6145;50.192;10.064;2022-09-09T14:48:54;23.10;51.10
12164;DHT22;6145;50.192;10.064;2022-09-09T14:51:22;23.00;51.10
12164;DHT22;6145;50.192;10.064;2022-09-09T14:53:51;23.00;50.90
12164;DHT22;6145;50.192;10.064;2022-09-09T14:56:21;23.00;51.10
12164;DHT22;6145;50.192;10.064;2022-09-09T14:58:48;23.00;50.90
12164;DHT22;6145;50.192;10.064;2022-09-09T15:01:18;23.00;51.20
12164;DHT22;6145;50.192;10.064;2022-09-09T15:03:49;23.00;51.40
12164;DHT22;6145;50.192;10.064;2022-09-09T15:06:18;23.00;51.40
12164;DHT22;6145;50.192;10.064;2022-09-09T15:08:45;23.00;51.20
12164;DHT22;6145;50.192;10.064;2022-09-09T15:11:14;23.00;51.40
12164;DHT22;6145;50.192;10.064;2022-09-09T15:13:42;23.00;51.60
12164;DHT22;6145;50.192;10.064;2022-09-09T15:16:11;23.00;51.80
12164;DHT22;6145;50.192;10.064;2022-09-09T15:18:39;23.00;51.80
12164;DHT22;6145;50.192;10.064;2022-09-09T15:21:08;23.00;51.60
12164;DHT22;6145;50.192;10.064;2022-09-09T15:23:37;23.00;50.70
12164;DHT22;6145;50.192;10.064;2022-09-09T15:26:04;23.00;49.90
12164;DHT22;6145;50.192;10.064;2022-09-09T15:28:31;23.00;49.40
12164;DHT22;6145;50.192;10.064;2022-09-09T15:30:59;23.00;48.80
12164;DHT22;6145;50.192;10.064;2022-09-09T15:33:31;22.90;48.70
12164;DHT22;6145;50.192;10.064;2022-09-09T15:35:58;22.90;48.30
12164;DHT22;6145;50.192;10.064;2022-09-09T15:38:25;22.90;48.50
12164;DHT22;6145;50.192;10.064;2022-09-09T15:40:54;22.80;48.40
12164;DHT22;6145;50.192;10.064;2022-09-09T15:43:22;22.90;48.60
12164;DHT22;6145;50.192;10.064;2022-09-09T15:45:53;22.80;48.50
12164;DHT22;6145;50.192;10.064;2022-09-09T15:48:30;22.80;48.50
12164;DHT22;6145;50.192;10.064;2022-09-09T15:51:02;22.80;48.70
12164;DHT22;6145;50.192;10.064;2022-09-09T15:53:29;22.80;48.60
12164;DHT22;6145;50.192;10.064;2022-09-09T15:55:59;22.70;48.70
12164;DHT22;6145;50.192;10.064;2022-09-09T15:58:25;22.70;48.80
12164;DHT22;6145;50.192;10.064;2022-09-09T16:01:01;22.70;48.80
12164;DHT22;6145;50.192;10.064;2022-09-09T16:03:28;22.70;48.80
12164;DHT22;6145;50.192;10.064;2022-09-09T16:05:55;22.70;48.90